Prevelis — SYDL — position and weather

sailwx.info

Track history (hours):
 
Tides and Currents Weather Stations Pressure Air Temp Water Temp Dewpoint Dewpoint Depression Visibility Wind Speed Wind Dir Waves Ship Positions

Prevelis

Last reported at 2017-Dec-11 17:00 UTC. Time now 2017-Dec-14 10:01 UTC.
Position N 37°57' E 023°38'.

Length 143 m; draft 5.5 m.

Type: Passenger vessel. MMSI: 239297000.

Date/timePositionNaut miles runAvg speedWind from/ knotsBaromVisibWave heightAir tempDewpointWater temp
2017-Dec-11 17:00N 37°57' E 023°38'0 0.0
2017-Dec-11 16:30N 37°57' E 023°38'0 0.0
2017-Dec-11 16:00N 37°57' E 023°38'0 0.0
2017-Dec-11 15:30N 37°57' E 023°38'0 0.0
2017-Dec-11 15:00N 37°57' E 023°38'0 0.0
2017-Dec-11 14:30N 37°57' E 023°38'0 0.0
2017-Dec-11 14:00N 37°57' E 023°38'0 0.0
2017-Dec-11 13:30N 37°57' E 023°38'0 0.0
2017-Dec-11 13:00N 37°57' E 023°38'0 0.0
2017-Dec-11 12:30N 37°57' E 023°38'0 0.0
2017-Dec-11 12:00N 37°57' E 023°38'0 0.0
2017-Dec-11 11:30N 37°57' E 023°38'0 0.0
2017-Dec-11 11:00N 37°57' E 023°38'0 0.0
2017-Dec-11 10:30N 37°57' E 023°38'0 0.0
2017-Dec-11 10:00N 37°57' E 023°38'0 0.0
2017-Dec-11 09:30N 37°57' E 023°38'0 0.0
2017-Dec-11 09:00N 37°57' E 023°38'0 0.6
2017-Dec-11 08:31N 37°57' E 023°38'611.7
2017-Dec-11 08:00N 37°51' E 023°40'917.4
2017-Dec-11 07:30N 37°43' E 023°44'4417.4
2017-Dec-11 05:00N 37°04' E 024°10'917.7
2017-Dec-11 04:30N 36°57' E 024°15'917.6
2017-Dec-11 04:00N 36°49' E 024°21'814.9
2017-Dec-11 03:30N 36°43' E 024°27'3 6.9
2017-Dec-11 03:00N 36°46' E 024°24'714.8
2017-Dec-11 02:30N 36°46' E 024°33'816.7
2017-Dec-11 02:01N 36°41' E 024°42'916.7
2017-Dec-11 01:29N 36°36' E 024°51'816.2
2017-Dec-11 01:00N 36°33' E 024°60'816.5
2017-Dec-11 00:30N 36°31' E 025°10'816.4
2017-Dec-11 00:00N 36°29' E 025°19'714.8
2017-Dec-10 23:30N 36°23' E 025°26'0 0.1
2017-Dec-10 23:01N 36°23' E 025°26'1 1.5
2017-Dec-10 22:31N 36°23' E 025°25'4 7.1
2017-Dec-10 22:00N 36°19' E 025°24'816.1
2017-Dec-10 21:31N 36°19' E 025°34'816.5
2017-Dec-10 21:01N 36°20' E 025°44'1 1.9
2017-Dec-10 20:23N 36°21' E 025°46'615.5
2017-Dec-10 20:00N 36°17' E 025°40'917.2
2017-Dec-10 19:30N 36°09' E 025°36'917.2
2017-Dec-10 19:00N 36°01' E 025°32'817.0
2017-Dec-10 18:30N 35°53' E 025°28'816.9
2017-Dec-10 18:00N 35°45' E 025°25'917.3
2017-Dec-10 17:30N 35°37' E 025°21'917.1
2017-Dec-10 16:59N 35°29' E 025°17'11 7.9
2017-Dec-10 15:38N 35°21' E 025°09'211.1
2017-Dec-10 15:29N 35°21' E 025°10'816.9
2017-Dec-10 15:00N 35°22' E 025°21'3 0.1
2017-Dec-09 10:15N 35°22' E 025°24'817.6
2017-Dec-09 09:47N 35°22' E 025°14'4 4.1
2017-Dec-09 08:43N 35°21' E 025°09'210.6
2017-Dec-09 08:30N 35°22' E 025°11'1714.2
2017-Dec-09 07:19N 35°36' E 025°21'517.4
2017-Dec-09 07:01N 35°41' E 025°24'917.4
2017-Dec-09 06:31N 35°49' E 025°28'917.6
2017-Dec-09 06:01N 35°57' E 025°33'917.4
2017-Dec-09 05:31N 36°05' E 025°37'917.3
2017-Dec-09 05:01N 36°13' E 025°42'8 8.3
2017-Dec-09 04:02N 36°21' E 025°46'014.8
2017-Dec-09 04:00N 36°20' E 025°45'917.5
2017-Dec-09 03:30N 36°19' E 025°35'917.3
2017-Dec-09 03:00N 36°19' E 025°24'4 8.4
2017-Dec-09 02:30N 36°23' E 025°25'1 1.9
2017-Dec-09 02:00N 36°23' E 025°26'0 0.0
2017-Dec-09 01:30N 36°23' E 025°26'4 7.7
2017-Dec-09 01:00N 36°22' E 025°21'816.6
2017-Dec-09 00:30N 36°24' E 025°11'816.7
2017-Dec-09 00:00N 36°28' E 025°02'917.1
2017-Dec-08 23:31N 36°33' E 024°54'917.3
2017-Dec-08 23:00N 36°38' E 024°45'917.5
2017-Dec-08 22:30N 36°44' E 024°36'816.4
2017-Dec-08 22:00N 36°47' E 024°27'4 7.7
2017-Dec-08 21:30N 36°43' E 024°27'5 8.5
2017-Dec-08 20:52N 36°47' E 024°22'617.1
2017-Dec-08 20:30N 36°53' E 024°18'816.5
2017-Dec-08 20:00N 36°60' E 024°13'816.8
2017-Dec-08 19:31N 37°07' E 024°07'2217.5
2017-Dec-08 18:14N 37°26' E 023°53'817.6
2017-Dec-08 17:46N 37°33' E 023°48'617.7
2017-Dec-08 17:26N 37°38' E 023°44'717.8
2017-Dec-08 17:01N 37°45' E 023°40'816.8
2017-Dec-08 16:31N 37°53' E 023°37'4 7.7
2017-Dec-08 16:01N 37°57' E 023°38'0 0.0
2017-Dec-08 15:30N 37°57' E 023°38'0 0.0
2017-Dec-08 15:01N 37°57' E 023°38'0 0.0
2017-Dec-08 14:30N 37°57' E 023°38'0 0.0
2017-Dec-08 14:01N 37°57' E 023°38'0 0.0
2017-Dec-08 13:30N 37°57' E 023°38'0 0.0
2017-Dec-08 13:01N 37°57' E 023°38'0 0.0
2017-Dec-08 12:30N 37°57' E 023°38'0 0.0
2017-Dec-08 12:01N 37°57' E 023°38'0 0.0
2017-Dec-08 11:30N 37°57' E 023°38'0 0.0
2017-Dec-08 11:01N 37°57' E 023°38'0 0.0
2017-Dec-08 10:30N 37°57' E 023°38'0 0.0
2017-Dec-08 10:01N 37°57' E 023°38'0 0.0
2017-Dec-08 09:31N 37°57' E 023°38'0 0.0
2017-Dec-08 09:00N 37°57' E 023°38'0 0.0
2017-Dec-08 08:30N 37°57' E 023°38'0 0.0
2017-Dec-08 08:00N 37°57' E 023°38'0 0.0
2017-Dec-08 07:30N 37°57' E 023°38'0 0.0
2017-Dec-08 07:00N 37°57' E 023°38'0 0.0
2017-Dec-08 06:31N 37°57' E 023°38'0 0.0
2017-Dec-08 06:00N 37°57' E 023°38'0 0.0
2017-Dec-08 05:31N 37°57' E 023°38'0 0.0
2017-Dec-08 05:00N 37°57' E 023°38'0 0.0
2017-Dec-08 04:31N 37°57' E 023°38'0 0.0
2017-Dec-08 04:01N 37°57' E 023°38'0 0.0
2017-Dec-08 03:31N 37°57' E 023°38'0 0.0
2017-Dec-08 03:00N 37°57' E 023°38'0 0.0
2017-Dec-08 02:30N 37°57' E 023°38'0 0.0
2017-Dec-08 02:00N 37°57' E 023°38'0 0.0
2017-Dec-08 01:31N 37°57' E 023°38'0 0.0
2017-Dec-08 01:01N 37°57' E 023°38'0 0.0
2017-Dec-08 00:31N 37°57' E 023°38'0 0.0
2017-Dec-08 00:00N 37°57' E 023°38'0 0.0
2017-Dec-07 23:31N 37°57' E 023°38'0 0.0
2017-Dec-07 23:01N 37°57' E 023°38'0 0.0
2017-Dec-07 22:30N 37°57' E 023°38'0 0.0
2017-Dec-07 22:01N 37°57' E 023°38'0 0.0
2017-Dec-07 21:30N 37°57' E 023°38'0 0.0
2017-Dec-07 21:01N 37°57' E 023°38'0 0.0
2017-Dec-07 20:30N 37°57' E 023°38'0 0.0
2017-Dec-07 20:01N 37°57' E 023°38'0 0.0
2017-Dec-07 19:31N 37°57' E 023°38'0 0.0
2017-Dec-07 19:00N 37°57' E 023°38'0 0.0
2017-Dec-07 18:31N 37°57' E 023°38'0 0.0
2017-Dec-07 18:01N 37°57' E 023°38'0 0.0
2017-Dec-07 17:30N 37°57' E 023°38'0 0.0
2017-Dec-07 17:00N 37°57' E 023°38'0 0.0
2017-Dec-07 16:31N 37°57' E 023°38'0 0.0
2017-Dec-07 16:01N 37°57' E 023°38'0 0.0
2017-Dec-07 15:30N 37°57' E 023°38'0 0.0
2017-Dec-07 15:00N 37°57' E 023°38'0 0.0
2017-Dec-07 14:30N 37°57' E 023°38'0 0.0
2017-Dec-07 14:00N 37°57' E 023°38'0 0.0
2017-Dec-07 13:30N 37°57' E 023°38'0 0.0
2017-Dec-07 13:01N 37°57' E 023°38'0 0.0
2017-Dec-07 12:31N 37°57' E 023°38'0 0.0
2017-Dec-07 12:00N 37°57' E 023°38'0 0.0
2017-Dec-07 11:30N 37°57' E 023°38'0 0.0
2017-Dec-07 11:00N 37°57' E 023°38'0 0.0
2017-Dec-07 10:31N 37°57' E 023°38'0 0.0
2017-Dec-07 10:01N 37°57' E 023°38'0 0.0
2017-Dec-07 09:31N 37°57' E 023°38'0 0.0
2017-Dec-07 09:00N 37°57' E 023°38'0 0.0
2017-Dec-07 08:30N 37°57' E 023°38'0 0.0
2017-Dec-07 08:01N 37°57' E 023°38'0 0.0
2017-Dec-07 07:30N 37°57' E 023°38'0 0.0
2017-Dec-07 07:00N 37°57' E 023°38'0 0.0
2017-Dec-07 06:30N 37°57' E 023°38'0 0.0
2017-Dec-07 06:00N 37°57' E 023°38'0 0.0
2017-Dec-07 05:30N 37°57' E 023°38'0 0.0
2017-Dec-07 05:01N 37°57' E 023°38'0 0.0
2017-Dec-07 04:31N 37°57' E 023°38'0 0.0
2017-Dec-07 04:00N 37°57' E 023°38'0 0.0
2017-Dec-07 03:30N 37°57' E 023°38'0 0.0
2017-Dec-07 03:01N 37°57' E 023°38'0 0.0
2017-Dec-07 02:31N 37°57' E 023°38'0 0.0
2017-Dec-07 02:01N 37°57' E 023°38'0 0.0
2017-Dec-07 01:30N 37°57' E 023°38'0 0.0
2017-Dec-07 01:00N 37°57' E 023°38'0 0.0
2017-Dec-07 00:31N 37°57' E 023°38'0 0.0
2017-Dec-07 00:01N 37°57' E 023°38'0 0.0
2017-Dec-06 23:30N 37°57' E 023°38'0 0.0
2017-Dec-06 23:00N 37°57' E 023°38'0 0.0
2017-Dec-06 22:30N 37°57' E 023°38'0 0.0
2017-Dec-06 22:01N 37°57' E 023°38'0 0.0
2017-Dec-06 21:31N 37°57' E 023°38'0 0.0
2017-Dec-06 21:01N 37°57' E 023°38'  
2017-Dec-03 19:54N 35°59' E 027°25'818.2
2017-Dec-03 19:28N 35°53' E 027°20'57 9.9
2017-Dec-03 13:41N 35°21' E 026°20'2911.1
2017-Dec-03 11:05N 35°22' E 025°45'117.7
2017-Dec-03 11:00N 35°22' E 025°43'917.3
2017-Dec-03 10:31N 35°22' E 025°33'917.0
2017-Dec-03 10:00N 35°22' E 025°22'917.7
2017-Dec-03 09:31N 35°22' E 025°11'3 5.0
2017-Dec-03 09:01N 35°21' E 025°09'0 0.7
2017-Dec-03 08:30N 35°21' E 025°09'816.4
2017-Dec-03 08:00N 35°27' E 025°16'816.2
2017-Dec-03 07:30N 35°34' E 025°20'816.8
2017-Dec-03 07:01N 35°42' E 025°25'917.2
2017-Dec-03 06:31N 35°50' E 025°29'917.3
2017-Dec-03 06:00N 35°58' E 025°33'817.0
2017-Dec-03 05:31N 36°05' E 025°37'917.0
2017-Dec-03 05:00N 36°13' E 025°42'816.1
2017-Dec-03 04:31N 36°20' E 025°46'3 6.4
2017-Dec-03 04:00N 36°19' E 025°42'816.5
2017-Dec-03 03:30N 36°19' E 025°32'816.3
2017-Dec-03 03:01N 36°20' E 025°22'4 8.5
2017-Dec-03 02:30N 36°23' E 025°26'0 0.0
2017-Dec-03 02:00N 36°23' E 025°26'3 6.2
2017-Dec-03 01:31N 36°23' E 025°22'816.1
2017-Dec-03 01:01N 36°25' E 025°12'816.7
2017-Dec-03 00:30N 36°29' E 025°03'816.7
2017-Dec-03 00:00N 36°33' E 024°55'816.7
2017-Dec-02 23:30N 36°38' E 024°46'816.7
2017-Dec-02 23:00N 36°43' E 024°38'816.3
2017-Dec-02 22:30N 36°47' E 024°29'5 9.3
2017-Dec-02 21:59N 36°43' E 024°26'4 6.4
2017-Dec-02 21:19N 36°46' E 024°23'516.7
2017-Dec-02 21:00N 36°51' E 024°20'816.8
2017-Dec-02 20:30N 36°58' E 024°14'816.4
2017-Dec-02 20:00N 37°05' E 024°09'815.8
2017-Dec-02 19:30N 37°12' E 024°04'815.7
2017-Dec-02 19:00N 37°18' E 023°59'815.4
2017-Dec-02 18:30N 37°25' E 023°54'815.8
2017-Dec-02 18:01N 37°31' E 023°48'815.6
2017-Dec-02 17:28N 37°39' E 023°43'715.8
2017-Dec-02 17:00N 37°45' E 023°39'816.0
2017-Dec-02 16:30N 37°53' E 023°37'4 7.6
2017-Dec-02 16:00N 37°57' E 023°38'0 0.0
2017-Dec-02 15:30N 37°57' E 023°38'0 0.0
2017-Dec-02 15:00N 37°57' E 023°38'0 0.0
2017-Dec-02 14:30N 37°57' E 023°38'0 0.0
2017-Dec-02 14:00N 37°57' E 023°38'0 0.0
2017-Dec-02 13:30N 37°57' E 023°38'0 0.0
2017-Dec-02 13:00N 37°57' E 023°38'0 0.0
2017-Dec-02 12:31N 37°57' E 023°38'0 0.0
2017-Dec-02 12:00N 37°57' E 023°38'0 0.0
2017-Dec-02 11:30N 37°57' E 023°38'0 0.0
2017-Dec-02 11:00N 37°57' E 023°38'0 0.0
2017-Dec-02 10:30N 37°57' E 023°38'0 0.0
2017-Dec-02 10:00N 37°57' E 023°38'0 0.0
2017-Dec-02 09:30N 37°57' E 023°38'0 0.0
2017-Dec-02 09:00N 37°57' E 023°38'0 0.0
2017-Dec-02 08:30N 37°57' E 023°38'0 0.0
2017-Dec-02 08:00N 37°57' E 023°38'0 0.0
2017-Dec-02 07:30N 37°57' E 023°38'0 0.0
2017-Dec-02 07:00N 37°57' E 023°38'0 0.0
2017-Dec-02 06:30N 37°57' E 023°38'0 0.0
2017-Dec-02 06:00N 37°57' E 023°38'0 0.0
2017-Dec-02 05:30N 37°57' E 023°38'0 0.0
2017-Dec-02 05:00N 37°57' E 023°38'0 0.0
2017-Dec-02 04:30N 37°57' E 023°38'0 0.0
2017-Dec-02 04:00N 37°57' E 023°38'0 0.0
2017-Dec-02 03:30N 37°57' E 023°38'0 0.0
2017-Dec-02 03:00N 37°57' E 023°38'0 0.0
2017-Dec-02 02:30N 37°57' E 023°38'0 0.0
2017-Dec-02 02:00N 37°57' E 023°38'0 0.0
2017-Dec-02 01:30N 37°57' E 023°38'0 0.0
2017-Dec-02 01:00N 37°57' E 023°38'0 0.0
2017-Dec-02 00:30N 37°57' E 023°38'0 0.0
2017-Dec-02 00:00N 37°57' E 023°38'0 0.0
2017-Dec-01 23:30N 37°57' E 023°38'0 0.0
2017-Dec-01 23:00N 37°57' E 023°38'0 0.0
2017-Dec-01 22:30N 37°57' E 023°38'0 0.0
2017-Dec-01 22:00N 37°57' E 023°38'0 0.0
2017-Dec-01 21:27N 37°57' E 023°38'0 0.0
2017-Dec-01 20:59N 37°57' E 023°38'0 0.0
2017-Dec-01 20:29N 37°57' E 023°38'0 0.0
2017-Dec-01 19:58N 37°57' E 023°38'0 0.0
2017-Dec-01 19:23N 37°57' E 023°38'0 0.0
2017-Dec-01 19:00N 37°57' E 023°38'0 0.0
2017-Dec-01 18:22N 37°57' E 023°38'0 0.0
2017-Dec-01 18:00N 37°57' E 023°38'0 0.0
2017-Dec-01 17:28N 37°57' E 023°38'  
Track history (hours):
 
Tides and Currents Weather Stations Pressure Air Temp Water Temp Dewpoint Dewpoint Depression Visibility Wind Speed Wind Dir Waves Ship Positions

Prevelis

Last reported at 2017-Dec-11 17:00 UTC. Time now 2017-Dec-14 10:01 UTC.
Position N 37°57' E 023°38'.

Length 143 m; draft 5.5 m.

Type: Passenger vessel. MMSI: 239297000.

Date/timePositionNaut miles runAvg speedWind from/ knotsBaromVisibWave heightAir tempDewpointWater temp
2017-Dec-11 17:00N 37°57' E 023°38'0 0.0
2017-Dec-11 16:30N 37°57' E 023°38'0 0.0
2017-Dec-11 16:00N 37°57' E 023°38'0 0.0
2017-Dec-11 15:30N 37°57' E 023°38'0 0.0
2017-Dec-11 15:00N 37°57' E 023°38'0 0.0
2017-Dec-11 14:30N 37°57' E 023°38'0 0.0
2017-Dec-11 14:00N 37°57' E 023°38'0 0.0
2017-Dec-11 13:30N 37°57' E 023°38'0 0.0
2017-Dec-11 13:00N 37°57' E 023°38'0 0.0
2017-Dec-11 12:30N 37°57' E 023°38'0 0.0
2017-Dec-11 12:00N 37°57' E 023°38'0 0.0
2017-Dec-11 11:30N 37°57' E 023°38'0 0.0
2017-Dec-11 11:00N 37°57' E 023°38'0 0.0
2017-Dec-11 10:30N 37°57' E 023°38'0 0.0
2017-Dec-11 10:00N 37°57' E 023°38'0 0.0
2017-Dec-11 09:30N 37°57' E 023°38'0 0.0
2017-Dec-11 09:00N 37°57' E 023°38'0 0.6
2017-Dec-11 08:31N 37°57' E 023°38'611.7
2017-Dec-11 08:00N 37°51' E 023°40'917.4
2017-Dec-11 07:30N 37°43' E 023°44'4417.4
2017-Dec-11 05:00N 37°04' E 024°10'917.7
2017-Dec-11 04:30N 36°57' E 024°15'917.6
2017-Dec-11 04:00N 36°49' E 024°21'814.9
2017-Dec-11 03:30N 36°43' E 024°27'3 6.9
2017-Dec-11 03:00N 36°46' E 024°24'714.8
2017-Dec-11 02:30N 36°46' E 024°33'816.7
2017-Dec-11 02:01N 36°41' E 024°42'916.7
2017-Dec-11 01:29N 36°36' E 024°51'816.2
2017-Dec-11 01:00N 36°33' E 024°60'816.5
2017-Dec-11 00:30N 36°31' E 025°10'816.4
2017-Dec-11 00:00N 36°29' E 025°19'714.8
2017-Dec-10 23:30N 36°23' E 025°26'0 0.1
2017-Dec-10 23:01N 36°23' E 025°26'1 1.5
2017-Dec-10 22:31N 36°23' E 025°25'4 7.1
2017-Dec-10 22:00N 36°19' E 025°24'816.1
2017-Dec-10 21:31N 36°19' E 025°34'816.5
2017-Dec-10 21:01N 36°20' E 025°44'1 1.9
2017-Dec-10 20:23N 36°21' E 025°46'615.5
2017-Dec-10 20:00N 36°17' E 025°40'917.2
2017-Dec-10 19:30N 36°09' E 025°36'917.2
2017-Dec-10 19:00N 36°01' E 025°32'817.0
2017-Dec-10 18:30N 35°53' E 025°28'816.9
2017-Dec-10 18:00N 35°45' E 025°25'917.3
2017-Dec-10 17:30N 35°37' E 025°21'917.1
2017-Dec-10 16:59N 35°29' E 025°17'11 7.9
2017-Dec-10 15:38N 35°21' E 025°09'211.1
2017-Dec-10 15:29N 35°21' E 025°10'816.9
2017-Dec-10 15:00N 35°22' E 025°21'3 0.1
2017-Dec-09 10:15N 35°22' E 025°24'817.6
2017-Dec-09 09:47N 35°22' E 025°14'4 4.1
2017-Dec-09 08:43N 35°21' E 025°09'210.6
2017-Dec-09 08:30N 35°22' E 025°11'1714.2
2017-Dec-09 07:19N 35°36' E 025°21'517.4
2017-Dec-09 07:01N 35°41' E 025°24'917.4
2017-Dec-09 06:31N 35°49' E 025°28'917.6
2017-Dec-09 06:01N 35°57' E 025°33'917.4
2017-Dec-09 05:31N 36°05' E 025°37'917.3
2017-Dec-09 05:01N 36°13' E 025°42'8 8.3
2017-Dec-09 04:02N 36°21' E 025°46'014.8
2017-Dec-09 04:00N 36°20' E 025°45'917.5
2017-Dec-09 03:30N 36°19' E 025°35'917.3
2017-Dec-09 03:00N 36°19' E 025°24'4 8.4
2017-Dec-09 02:30N 36°23' E 025°25'1 1.9
2017-Dec-09 02:00N 36°23' E 025°26'0 0.0
2017-Dec-09 01:30N 36°23' E 025°26'4 7.7
2017-Dec-09 01:00N 36°22' E 025°21'816.6
2017-Dec-09 00:30N 36°24' E 025°11'816.7
2017-Dec-09 00:00N 36°28' E 025°02'917.1
2017-Dec-08 23:31N 36°33' E 024°54'917.3
2017-Dec-08 23:00N 36°38' E 024°45'917.5
2017-Dec-08 22:30N 36°44' E 024°36'816.4
2017-Dec-08 22:00N 36°47' E 024°27'4 7.7
2017-Dec-08 21:30N 36°43' E 024°27'5 8.5
2017-Dec-08 20:52N 36°47' E 024°22'617.1
2017-Dec-08 20:30N 36°53' E 024°18'816.5
2017-Dec-08 20:00N 36°60' E 024°13'816.8
2017-Dec-08 19:31N 37°07' E 024°07'2217.5
2017-Dec-08 18:14N 37°26' E 023°53'817.6
2017-Dec-08 17:46N 37°33' E 023°48'617.7
2017-Dec-08 17:26N 37°38' E 023°44'717.8
2017-Dec-08 17:01N 37°45' E 023°40'816.8
2017-Dec-08 16:31N 37°53' E 023°37'4 7.7
2017-Dec-08 16:01N 37°57' E 023°38'0 0.0
2017-Dec-08 15:30N 37°57' E 023°38'0 0.0
2017-Dec-08 15:01N 37°57' E 023°38'0 0.0
2017-Dec-08 14:30N 37°57' E 023°38'0 0.0
2017-Dec-08 14:01N 37°57' E 023°38'0 0.0
2017-Dec-08 13:30N 37°57' E 023°38'0 0.0
2017-Dec-08 13:01N 37°57' E 023°38'0 0.0
2017-Dec-08 12:30N 37°57' E 023°38'0 0.0
2017-Dec-08 12:01N 37°57' E 023°38'0 0.0
2017-Dec-08 11:30N 37°57' E 023°38'0 0.0
2017-Dec-08 11:01N 37°57' E 023°38'0 0.0
2017-Dec-08 10:30N 37°57' E 023°38'0 0.0
2017-Dec-08 10:01N 37°57' E 023°38'0 0.0
2017-Dec-08 09:31N 37°57' E 023°38'0 0.0
2017-Dec-08 09:00N 37°57' E 023°38'0 0.0
2017-Dec-08 08:30N 37°57' E 023°38'0 0.0
2017-Dec-08 08:00N 37°57' E 023°38'0 0.0
2017-Dec-08 07:30N 37°57' E 023°38'0 0.0
2017-Dec-08 07:00N 37°57' E 023°38'0 0.0
2017-Dec-08 06:31N 37°57' E 023°38'0 0.0
2017-Dec-08 06:00N 37°57' E 023°38'0 0.0
2017-Dec-08 05:31N 37°57' E 023°38'0 0.0
2017-Dec-08 05:00N 37°57' E 023°38'0 0.0
2017-Dec-08 04:31N 37°57' E 023°38'0 0.0
2017-Dec-08 04:01N 37°57' E 023°38'0 0.0
2017-Dec-08 03:31N 37°57' E 023°38'0 0.0
2017-Dec-08 03:00N 37°57' E 023°38'0 0.0
2017-Dec-08 02:30N 37°57' E 023°38'0 0.0
2017-Dec-08 02:00N 37°57' E 023°38'0 0.0
2017-Dec-08 01:31N 37°57' E 023°38'0 0.0
2017-Dec-08 01:01N 37°57' E 023°38'0 0.0
2017-Dec-08 00:31N 37°57' E 023°38'0 0.0
2017-Dec-08 00:00N 37°57' E 023°38'0 0.0
2017-Dec-07 23:31N 37°57' E 023°38'0 0.0
2017-Dec-07 23:01N 37°57' E 023°38'0 0.0
2017-Dec-07 22:30N 37°57' E 023°38'0 0.0
2017-Dec-07 22:01N 37°57' E 023°38'0 0.0
2017-Dec-07 21:30N 37°57' E 023°38'0 0.0
2017-Dec-07 21:01N 37°57' E 023°38'0 0.0
2017-Dec-07 20:30N 37°57' E 023°38'0 0.0
2017-Dec-07 20:01N 37°57' E 023°38'0 0.0
2017-Dec-07 19:31N 37°57' E 023°38'0 0.0
2017-Dec-07 19:00N 37°57' E 023°38'0 0.0
2017-Dec-07 18:31N 37°57' E 023°38'0 0.0
2017-Dec-07 18:01N 37°57' E 023°38'0 0.0
2017-Dec-07 17:30N 37°57' E 023°38'0 0.0
2017-Dec-07 17:00N 37°57' E 023°38'0 0.0
2017-Dec-07 16:31N 37°57' E 023°38'0 0.0
2017-Dec-07 16:01N 37°57' E 023°38'0 0.0
2017-Dec-07 15:30N 37°57' E 023°38'0 0.0
2017-Dec-07 15:00N 37°57' E 023°38'0 0.0
2017-Dec-07 14:30N 37°57' E 023°38'0 0.0
2017-Dec-07 14:00N 37°57' E 023°38'0 0.0
2017-Dec-07 13:30N 37°57' E 023°38'0 0.0
2017-Dec-07 13:01N 37°57' E 023°38'0 0.0
2017-Dec-07 12:31N 37°57' E 023°38'0 0.0
2017-Dec-07 12:00N 37°57' E 023°38'0 0.0
2017-Dec-07 11:30N 37°57' E 023°38'0 0.0
2017-Dec-07 11:00N 37°57' E 023°38'0 0.0
2017-Dec-07 10:31N 37°57' E 023°38'0 0.0
2017-Dec-07 10:01N 37°57' E 023°38'0 0.0
2017-Dec-07 09:31N 37°57' E 023°38'0 0.0
2017-Dec-07 09:00N 37°57' E 023°38'0 0.0
2017-Dec-07 08:30N 37°57' E 023°38'0 0.0
2017-Dec-07 08:01N 37°57' E 023°38'0 0.0
2017-Dec-07 07:30N 37°57' E 023°38'0 0.0
2017-Dec-07 07:00N 37°57' E 023°38'0 0.0
2017-Dec-07 06:30N 37°57' E 023°38'0 0.0
2017-Dec-07 06:00N 37°57' E 023°38'0 0.0
2017-Dec-07 05:30N 37°57' E 023°38'0 0.0
2017-Dec-07 05:01N 37°57' E 023°38'0 0.0
2017-Dec-07 04:31N 37°57' E 023°38'0 0.0
2017-Dec-07 04:00N 37°57' E 023°38'0 0.0
2017-Dec-07 03:30N 37°57' E 023°38'0 0.0
2017-Dec-07 03:01N 37°57' E 023°38'0 0.0
2017-Dec-07 02:31N 37°57' E 023°38'0 0.0
2017-Dec-07 02:01N 37°57' E 023°38'0 0.0
2017-Dec-07 01:30N 37°57' E 023°38'0 0.0
2017-Dec-07 01:00N 37°57' E 023°38'0 0.0
2017-Dec-07 00:31N 37°57' E 023°38'0 0.0
2017-Dec-07 00:01N 37°57' E 023°38'0 0.0
2017-Dec-06 23:30N 37°57' E 023°38'0 0.0
2017-Dec-06 23:00N 37°57' E 023°38'0 0.0
2017-Dec-06 22:30N 37°57' E 023°38'0 0.0
2017-Dec-06 22:01N 37°57' E 023°38'0 0.0
2017-Dec-06 21:31N 37°57' E 023°38'0 0.0
2017-Dec-06 21:01N 37°57' E 023°38'  
2017-Dec-03 19:54N 35°59' E 027°25'818.2
2017-Dec-03 19:28N 35°53' E 027°20'57 9.9
2017-Dec-03 13:41N 35°21' E 026°20'2911.1
2017-Dec-03 11:05N 35°22' E 025°45'117.7
2017-Dec-03 11:00N 35°22' E 025°43'917.3
2017-Dec-03 10:31N 35°22' E 025°33'917.0
2017-Dec-03 10:00N 35°22' E 025°22'917.7
2017-Dec-03 09:31N 35°22' E 025°11'3 5.0
2017-Dec-03 09:01N 35°21' E 025°09'0 0.7
2017-Dec-03 08:30N 35°21' E 025°09'816.4
2017-Dec-03 08:00N 35°27' E 025°16'816.2
2017-Dec-03 07:30N 35°34' E 025°20'816.8
2017-Dec-03 07:01N 35°42' E 025°25'917.2
2017-Dec-03 06:31N 35°50' E 025°29'917.3
2017-Dec-03 06:00N 35°58' E 025°33'817.0
2017-Dec-03 05:31N 36°05' E 025°37'917.0
2017-Dec-03 05:00N 36°13' E 025°42'816.1
2017-Dec-03 04:31N 36°20' E 025°46'3 6.4
2017-Dec-03 04:00N 36°19' E 025°42'816.5
2017-Dec-03 03:30N 36°19' E 025°32'816.3
2017-Dec-03 03:01N 36°20' E 025°22'4 8.5
2017-Dec-03 02:30N 36°23' E 025°26'0 0.0
2017-Dec-03 02:00N 36°23' E 025°26'3 6.2
2017-Dec-03 01:31N 36°23' E 025°22'816.1
2017-Dec-03 01:01N 36°25' E 025°12'816.7
2017-Dec-03 00:30N 36°29' E 025°03'816.7
2017-Dec-03 00:00N 36°33' E 024°55'816.7
2017-Dec-02 23:30N 36°38' E 024°46'816.7
2017-Dec-02 23:00N 36°43' E 024°38'816.3
2017-Dec-02 22:30N 36°47' E 024°29'5 9.3
2017-Dec-02 21:59N 36°43' E 024°26'4 6.4
2017-Dec-02 21:19N 36°46' E 024°23'516.7
2017-Dec-02 21:00N 36°51' E 024°20'816.8
2017-Dec-02 20:30N 36°58' E 024°14'816.4
2017-Dec-02 20:00N 37°05' E 024°09'815.8
2017-Dec-02 19:30N 37°12' E 024°04'815.7
2017-Dec-02 19:00N 37°18' E 023°59'815.4
2017-Dec-02 18:30N 37°25' E 023°54'815.8
2017-Dec-02 18:01N 37°31' E 023°48'815.6
2017-Dec-02 17:28N 37°39' E 023°43'715.8
2017-Dec-02 17:00N 37°45' E 023°39'816.0
2017-Dec-02 16:30N 37°53' E 023°37'4 7.6
2017-Dec-02 16:00N 37°57' E 023°38'0 0.0
2017-Dec-02 15:30N 37°57' E 023°38'0 0.0
2017-Dec-02 15:00N 37°57' E 023°38'0 0.0
2017-Dec-02 14:30N 37°57' E 023°38'0 0.0
2017-Dec-02 14:00N 37°57' E 023°38'0 0.0
2017-Dec-02 13:30N 37°57' E 023°38'0 0.0
2017-Dec-02 13:00N 37°57' E 023°38'0 0.0
2017-Dec-02 12:31N 37°57' E 023°38'0 0.0
2017-Dec-02 12:00N 37°57' E 023°38'0 0.0
2017-Dec-02 11:30N 37°57' E 023°38'0 0.0
2017-Dec-02 11:00N 37°57' E 023°38'0 0.0
2017-Dec-02 10:30N 37°57' E 023°38'0 0.0
2017-Dec-02 10:00N 37°57' E 023°38'0 0.0
2017-Dec-02 09:30N 37°57' E 023°38'0 0.0
2017-Dec-02 09:00N 37°57' E 023°38'0 0.0
2017-Dec-02 08:30N 37°57' E 023°38'0 0.0
2017-Dec-02 08:00N 37°57' E 023°38'0 0.0
2017-Dec-02 07:30N 37°57' E 023°38'0 0.0
2017-Dec-02 07:00N 37°57' E 023°38'0 0.0
2017-Dec-02 06:30N 37°57' E 023°38'0 0.0
2017-Dec-02 06:00N 37°57' E 023°38'0 0.0
2017-Dec-02 05:30N 37°57' E 023°38'0 0.0
2017-Dec-02 05:00N 37°57' E 023°38'0 0.0
2017-Dec-02 04:30N 37°57' E 023°38'0 0.0
2017-Dec-02 04:00N 37°57' E 023°38'0 0.0
2017-Dec-02 03:30N 37°57' E 023°38'0 0.0
2017-Dec-02 03:00N 37°57' E 023°38'0 0.0
2017-Dec-02 02:30N 37°57' E 023°38'0 0.0
2017-Dec-02 02:00N 37°57' E 023°38'0 0.0
2017-Dec-02 01:30N 37°57' E 023°38'0 0.0
2017-Dec-02 01:00N 37°57' E 023°38'0 0.0
2017-Dec-02 00:30N 37°57' E 023°38'0 0.0
2017-Dec-02 00:00N 37°57' E 023°38'0 0.0
2017-Dec-01 23:30N 37°57' E 023°38'0 0.0
2017-Dec-01 23:00N 37°57' E 023°38'0 0.0
2017-Dec-01 22:30N 37°57' E 023°38'0 0.0
2017-Dec-01 22:00N 37°57' E 023°38'0 0.0
2017-Dec-01 21:27N 37°57' E 023°38'0 0.0
2017-Dec-01 20:59N 37°57' E 023°38'0 0.0
2017-Dec-01 20:29N 37°57' E 023°38'0 0.0
2017-Dec-01 19:58N 37°57' E 023°38'0 0.0
2017-Dec-01 19:23N 37°57' E 023°38'0 0.0
2017-Dec-01 19:00N 37°57' E 023°38'0 0.0
2017-Dec-01 18:22N 37°57' E 023°38'0 0.0
2017-Dec-01 18:00N 37°57' E 023°38'0 0.0
2017-Dec-01 17:28N 37°57' E 023°38'  

Dump ship's entire track history